PWSweather.com
Personal Weather Stations
Station Observations
CASADIAZ
Golden Meadows, Morrison, CO 80465

Golden MeadowsMorrison, CO 80465

Lat: 39.571, Lon: -105.233

Elevation: 7454

Station Type: Davis Vantage Vue

Latest ConditionsUpdated 3:18:40 PM MDT Thursday, Oct 18, 2018
Currently Today's Max Today's Min Today's Average
Temperature 59.7°F15.4°C 60.1°F15.6°C 33.1°F0.6°C 47.4°F8.6°C
Dew Point 22.8°F-5.1°C 32.0°F0.0°C 22.8°F-5.1°C 28.3°F-2.1°C
Winds 2.9 mph WSW4.7 kmh WSW 6.9 mph -11.1 kmh - - 2.5 mph 4.0 kmh
Wind Gusts 6.9 mph11.1 kmh 20.0 mph32.2 kmh - -
Humidity 24% 82% 24% 50%
Pressure 30.05 in1017.6 mb 30.24 in1024.0 mb 30.05 in1017.6 mb -
Hour Temp Dew Point Humidity Winds Wind Gusts Pressure Precip Precip Rate Daily Precip Total
03:18 PM 59.7°F15.4°C 22.8°F-5.1°C 24% 2.9 mph WSW4.7 kmh WSW 6.9 mph11.1 kmh 30.05 in1017.6 mb 0.00 in0.0 mm 0.00 in0.0 mm 0.00 in0.0 mm
03:13 PM 60.1°F15.6°C 23.2°F-4.9°C 24% 2.9 mph WSW4.7 kmh WSW 6.9 mph11.1 kmh 30.05 in1017.6 mb 0.00 in0.0 mm 0.00 in0.0 mm 0.00 in0.0 mm
03:08 PM 59.7°F15.4°C 24.8°F-4.0°C 26% 2.9 mph S4.7 kmh S 8.9 mph14.3 kmh 30.05 in1017.6 mb 0.00 in0.0 mm 0.00 in0.0 mm 0.00 in0.0 mm
03:03 PM 59.5°F15.3°C 23.7°F-4.6°C 25% 4.0 mph WSW6.4 kmh WSW 11.0 mph17.7 kmh 30.05 in1017.6 mb 0.00 in0.0 mm 0.00 in0.0 mm 0.00 in0.0 mm
02:58 PM 59.2°F15.1°C 24.3°F-4.3°C 26% 2.9 mph SW4.7 kmh SW 8.9 mph14.3 kmh 30.05 in1017.6 mb 0.00 in0.0 mm 0.00 in0.0 mm 0.00 in0.0 mm
02:53 PM 59.7°F15.4°C 23.9°F-4.5°C 25% 2.9 mph NW4.7 kmh NW 12.1 mph19.5 kmh 30.05 in1017.6 mb 0.00 in0.0 mm 0.00 in0.0 mm 0.00 in0.0 mm
02:48 PM 59.5°F15.3°C 24.6°F-4.1°C 26% 2.9 mph WSW4.7 kmh WSW 10.0 mph16.1 kmh 30.05 in1017.6 mb 0.00 in0.0 mm 0.00 in0.0 mm 0.00 in0.0 mm
02:43 PM 59.2°F15.1°C 25.2°F-3.8°C 27% 2.9 mph SE4.7 kmh SE 6.0 mph9.7 kmh 30.05 in1017.6 mb 0.00 in0.0 mm 0.00 in0.0 mm 0.00 in0.0 mm
02:38 PM 59.2°F15.1°C 24.3°F-4.3°C 26% 4.0 mph SSW6.4 kmh SSW 11.0 mph17.7 kmh 30.06 in1017.9 mb 0.00 in0.0 mm 0.00 in0.0 mm 0.00 in0.0 mm
02:33 PM 59.0°F15.0°C 24.1°F-4.4°C 26% 2.9 mph W4.7 kmh W 9.0 mph14.5 kmh 30.06 in1017.9 mb 0.00 in0.0 mm 0.00 in0.0 mm 0.00 in0.0 mm
02:28 PM 59.0°F15.0°C 23.2°F-4.9°C 25% 2.9 mph WSW4.7 kmh WSW 8.0 mph12.9 kmh 30.06 in1017.9 mb 0.00 in0.0 mm 0.00 in0.0 mm 0.00 in0.0 mm
02:23 PM 58.8°F14.9°C 25.0°F-3.9°C 27% 2.9 mph NE4.7 kmh NE 6.9 mph11.1 kmh 30.06 in1017.9 mb 0.00 in0.0 mm 0.00 in0.0 mm 0.00 in0.0 mm
02:18 PM 58.8°F14.9°C 24.1°F-4.4°C 26% 2.9 mph S4.7 kmh S 8.1 mph13.0 kmh 30.06 in1017.9 mb 0.00 in0.0 mm 0.00 in0.0 mm 0.00 in0.0 mm
02:13 PM 58.6°F14.8°C 23.9°F-4.5°C 26% 4.0 mph WSW6.4 kmh WSW 11.0 mph17.7 kmh 30.07 in1018.3 mb 0.00 in0.0 mm 0.00 in0.0 mm 0.00 in0.0 mm
02:08 PM 58.6°F14.8°C 23.9°F-4.5°C 26% 4.0 mph SSW6.4 kmh SSW 10.1 mph16.3 kmh 30.07 in1018.3 mb 0.00 in0.0 mm 0.00 in0.0 mm 0.00 in0.0 mm
02:03 PM 58.6°F14.8°C 23.9°F-4.5°C 26% 4.0 mph SW6.4 kmh SW 14.1 mph22.7 kmh 30.08 in1018.6 mb 0.00 in0.0 mm 0.00 in0.0 mm 0.00 in0.0 mm
01:58 PM 58.5°F14.7°C 24.6°F-4.1°C 27% 4.0 mph WNW6.4 kmh WNW 11.0 mph17.7 kmh 30.08 in1018.6 mb 0.00 in0.0 mm 0.00 in0.0 mm 0.00 in0.0 mm
01:53 PM 58.3°F14.6°C 24.4°F-4.2°C 27% 4.0 mph SW6.4 kmh SW 11.0 mph17.7 kmh 30.08 in1018.6 mb 0.00 in0.0 mm 0.00 in0.0 mm 0.00 in0.0 mm
01:48 PM 58.1°F14.5°C 23.4°F-4.8°C 26% 4.0 mph WSW6.4 kmh WSW 13.0 mph20.9 kmh 30.09 in1019.0 mb 0.00 in0.0 mm 0.00 in0.0 mm 0.00 in0.0 mm
01:43 PM 57.9°F14.4°C 25.0°F-3.9°C 28% 4.0 mph WSW6.4 kmh WSW 11.0 mph17.7 kmh 30.09 in1019.0 mb 0.00 in0.0 mm 0.00 in0.0 mm 0.00 in0.0 mm
01:38 PM 57.7°F14.3°C 24.8°F-4.0°C 28% 4.0 mph W6.4 kmh W 16.1 mph25.9 kmh 30.09 in1019.0 mb 0.00 in0.0 mm 0.00 in0.0 mm 0.00 in0.0 mm
01:33 PM 57.6°F14.2°C 25.5°F-3.6°C 29% 2.9 mph SE4.7 kmh SE 9.0 mph14.5 kmh 30.09 in1019.0 mb 0.00 in0.0 mm 0.00 in0.0 mm 0.00 in0.0 mm
01:28 PM 57.0°F13.9°C 24.3°F-4.3°C 28% 2.9 mph SW4.7 kmh SW 8.1 mph13.0 kmh 30.10 in1019.3 mb 0.00 in0.0 mm 0.00 in0.0 mm 0.00 in0.0 mm
01:23 PM 57.4°F14.1°C 24.6°F-4.1°C 28% 4.0 mph SE6.4 kmh SE 8.9 mph14.3 kmh 30.10 in1019.3 mb 0.00 in0.0 mm 0.00 in0.0 mm 0.00 in0.0 mm
01:18 PM 57.2°F14.0°C 25.2°F-3.8°C 29% 4.9 mph SW7.9 kmh SW 11.0 mph17.7 kmh 30.11 in1019.6 mb 0.00 in0.0 mm 0.00 in0.0 mm 0.00 in0.0 mm
01:13 PM 56.1°F13.4°C 24.3°F-4.3°C 29% 4.0 mph SSE6.4 kmh SSE 16.1 mph25.9 kmh 30.11 in1019.6 mb 0.00 in0.0 mm 0.00 in0.0 mm 0.00 in0.0 mm
01:08 PM 56.1°F13.4°C 25.2°F-3.8°C 30% 2.0 mph NW3.2 kmh NW 8.9 mph14.3 kmh 30.11 in1019.6 mb 0.00 in0.0 mm 0.00 in0.0 mm 0.00 in0.0 mm
01:03 PM 55.6°F13.1°C 26.2°F-3.2°C 32% 2.9 mph WSW4.7 kmh WSW 8.9 mph14.3 kmh 30.12 in1020.0 mb 0.00 in0.0 mm 0.00 in0.0 mm 0.00 in0.0 mm
12:58 PM 55.4°F13.0°C 24.4°F-4.2°C 30% 4.0 mph W6.4 kmh W 10.1 mph16.3 kmh 30.12 in1020.0 mb 0.00 in0.0 mm 0.00 in0.0 mm 0.00 in0.0 mm
12:53 PM 56.5°F13.6°C 24.6°F-4.1°C 29% 4.0 mph SSW6.4 kmh SSW 11.0 mph17.7 kmh 30.12 in1020.0 mb 0.00 in0.0 mm 0.00 in0.0 mm 0.00 in0.0 mm
12:48 PM 56.7°F13.7°C 23.9°F-4.5°C 28% 4.0 mph WNW6.4 kmh WNW 8.9 mph14.3 kmh 30.13 in1020.3 mb 0.00 in0.0 mm 0.00 in0.0 mm 0.00 in0.0 mm
12:43 PM 56.3°F13.5°C 25.3°F-3.7°C 30% 4.9 mph SW7.9 kmh SW 12.1 mph19.5 kmh 30.13 in1020.3 mb 0.00 in0.0 mm 0.00 in0.0 mm 0.00 in0.0 mm
12:38 PM 56.3°F13.5°C 24.4°F-4.2°C 29% 4.9 mph SSE7.9 kmh SSE 14.1 mph22.7 kmh 30.13 in1020.3 mb 0.00 in0.0 mm 0.00 in0.0 mm 0.00 in0.0 mm
12:33 PM 56.8°F13.8°C 25.0°F-3.9°C 29% 4.0 mph NW6.4 kmh NW 10.1 mph16.3 kmh 30.14 in1020.7 mb 0.00 in0.0 mm 0.00 in0.0 mm 0.00 in0.0 mm
12:28 PM 56.8°F13.8°C 25.0°F-3.9°C 29% 2.9 mph WSW4.7 kmh WSW 14.0 mph22.5 kmh 30.14 in1020.7 mb 0.00 in0.0 mm 0.00 in0.0 mm 0.00 in0.0 mm
12:23 PM 56.3°F13.5°C 23.5°F-4.7°C 28% 4.9 mph W7.9 kmh W 13.0 mph20.9 kmh 30.14 in1020.7 mb 0.00 in0.0 mm 0.00 in0.0 mm 0.00 in0.0 mm
12:18 PM 56.5°F13.6°C 24.6°F-4.1°C 29% 4.9 mph S7.9 kmh S 15.0 mph24.1 kmh 30.14 in1020.7 mb 0.00 in0.0 mm 0.00 in0.0 mm 0.00 in0.0 mm
12:13 PM 55.9°F13.3°C 25.7°F-3.5°C 31% 4.9 mph SW7.9 kmh SW 13.0 mph20.9 kmh 30.14 in1020.7 mb 0.00 in0.0 mm 0.00 in0.0 mm 0.00 in0.0 mm
12:08 PM 55.8°F13.2°C 25.5°F-3.6°C 31% 4.9 mph W7.9 kmh W 13.0 mph20.9 kmh 30.14 in1020.7 mb 0.00 in0.0 mm 0.00 in0.0 mm 0.00 in0.0 mm
12:03 PM 56.1°F13.4°C 25.2°F-3.8°C 30% 4.0 mph SW6.4 kmh SW 12.0 mph19.3 kmh 30.15 in1021.0 mb 0.00 in0.0 mm 0.00 in0.0 mm 0.00 in0.0 mm
11:58 AM 56.3°F13.5°C 25.3°F-3.7°C 30% 2.9 mph SE4.7 kmh SE 11.0 mph17.7 kmh 30.15 in1021.0 mb 0.00 in0.0 mm 0.00 in0.0 mm 0.00 in0.0 mm
11:53 AM 56.1°F13.4°C 26.6°F-3.0°C 32% 2.9 mph NW4.7 kmh NW 6.0 mph9.7 kmh 30.15 in1021.0 mb 0.00 in0.0 mm 0.00 in0.0 mm 0.00 in0.0 mm
11:48 AM 55.8°F13.2°C 25.5°F-3.6°C 31% 4.0 mph SW6.4 kmh SW 10.1 mph16.3 kmh 30.15 in1021.0 mb 0.00 in0.0 mm 0.00 in0.0 mm 0.00 in0.0 mm
11:43 AM 55.9°F13.3°C 25.7°F-3.5°C 31% 4.0 mph WSW6.4 kmh WSW 12.0 mph19.3 kmh 30.16 in1021.3 mb 0.00 in0.0 mm 0.00 in0.0 mm 0.00 in0.0 mm
11:38 AM 55.8°F13.2°C 26.4°F-3.1°C 32% 4.0 mph S6.4 kmh S 11.0 mph17.7 kmh 30.16 in1021.3 mb 0.00 in0.0 mm 0.00 in0.0 mm 0.00 in0.0 mm
11:33 AM 55.4°F13.0°C 26.8°F-2.9°C 33% 4.9 mph SE7.9 kmh SE 10.1 mph16.3 kmh 30.16 in1021.3 mb 0.00 in0.0 mm 0.00 in0.0 mm 0.00 in0.0 mm
11:28 AM 55.2°F12.9°C 28.0°F-2.2°C 35% 4.0 mph SE6.4 kmh SE 8.9 mph14.3 kmh 30.16 in1021.3 mb 0.00 in0.0 mm 0.00 in0.0 mm 0.00 in0.0 mm
11:23 AM 55.6°F13.1°C 27.0°F-2.8°C 33% 2.9 mph SSE4.7 kmh SSE 10.0 mph16.1 kmh 30.16 in1021.3 mb 0.00 in0.0 mm 0.00 in0.0 mm 0.00 in0.0 mm
11:18 AM 55.2°F12.9°C 27.3°F-2.6°C 34% 2.9 mph S4.7 kmh S 6.9 mph11.1 kmh 30.16 in1021.3 mb 0.00 in0.0 mm 0.00 in0.0 mm 0.00 in0.0 mm
11:13 AM 54.9°F12.7°C 27.0°F-2.8°C 34% 4.0 mph S6.4 kmh S 14.1 mph22.7 kmh 30.17 in1021.7 mb 0.00 in0.0 mm 0.00 in0.0 mm 0.00 in0.0 mm
11:08 AM 55.2°F12.9°C 27.3°F-2.6°C 34% 4.0 mph WSW6.4 kmh WSW 12.0 mph19.3 kmh 30.17 in1021.7 mb 0.00 in0.0 mm 0.00 in0.0 mm 0.00 in0.0 mm
11:03 AM 55.2°F12.9°C 27.3°F-2.6°C 34% 2.9 mph S4.7 kmh S 8.1 mph13.0 kmh 30.17 in1021.7 mb 0.00 in0.0 mm 0.00 in0.0 mm 0.00 in0.0 mm
10:58 AM 55.4°F13.0°C 27.5°F-2.5°C 34% 2.9 mph WSW4.7 kmh WSW 12.1 mph19.5 kmh 30.17 in1021.7 mb 0.00 in0.0 mm 0.00 in0.0 mm 0.00 in0.0 mm
10:53 AM 55.0°F12.8°C 27.1°F-2.7°C 34% 2.9 mph S4.7 kmh S 10.1 mph16.3 kmh 30.17 in1021.7 mb 0.00 in0.0 mm 0.00 in0.0 mm 0.00 in0.0 mm
10:48 AM 54.9°F12.7°C 27.7°F-2.4°C 35% 4.0 mph SSE6.4 kmh SSE 11.0 mph17.7 kmh 30.17 in1021.7 mb 0.00 in0.0 mm 0.00 in0.0 mm 0.00 in0.0 mm
10:43 AM 54.7°F12.6°C 27.5°F-2.5°C 35% 4.0 mph WSW6.4 kmh WSW 12.1 mph19.5 kmh 30.17 in1021.7 mb 0.00 in0.0 mm 0.00 in0.0 mm 0.00 in0.0 mm
10:38 AM 54.9°F12.7°C 27.7°F-2.4°C 35% 4.0 mph WSW6.4 kmh WSW 8.9 mph14.3 kmh 30.18 in1022.0 mb 0.00 in0.0 mm 0.00 in0.0 mm 0.00 in0.0 mm
10:33 AM 54.7°F12.6°C 29.5°F-1.4°C 38% 2.9 mph SSW4.7 kmh SSW 12.1 mph19.5 kmh 30.18 in1022.0 mb 0.00 in0.0 mm 0.00 in0.0 mm 0.00 in0.0 mm
10:28 AM 54.5°F12.5°C 29.5°F-1.4°C 38% 2.9 mph SSW4.7 kmh SSW 6.9 mph11.1 kmh 30.18 in1022.0 mb 0.00 in0.0 mm 0.00 in0.0 mm 0.00 in0.0 mm
10:23 AM 54.1°F12.3°C 30.4°F-0.9°C 40% 2.9 mph WNW4.7 kmh WNW 10.1 mph16.3 kmh 30.18 in1022.0 mb 0.00 in0.0 mm 0.00 in0.0 mm 0.00 in0.0 mm
10:18 AM 53.8°F12.1°C 30.0°F-1.1°C 40% 2.9 mph SW4.7 kmh SW 8.9 mph14.3 kmh 30.18 in1022.0 mb 0.00 in0.0 mm 0.00 in0.0 mm 0.00 in0.0 mm
10:13 AM 53.1°F11.7°C 30.6°F-0.8°C 42% 4.0 mph SSE6.4 kmh SSE 8.9 mph14.3 kmh 30.18 in1022.0 mb 0.00 in0.0 mm 0.00 in0.0 mm 0.00 in0.0 mm
10:08 AM 52.5°F11.4°C 30.0°F-1.1°C 42% 4.9 mph SW7.9 kmh SW 13.0 mph20.9 kmh 30.19 in1022.4 mb 0.00 in0.0 mm 0.00 in0.0 mm 0.00 in0.0 mm
10:03 AM 52.2°F11.2°C 30.4°F-0.9°C 43% 4.0 mph S6.4 kmh S 10.1 mph16.3 kmh 30.19 in1022.4 mb 0.00 in0.0 mm 0.00 in0.0 mm 0.00 in0.0 mm
09:58 AM 51.6°F10.9°C 30.9°F-0.6°C 45% 4.0 mph SW6.4 kmh SW 13.0 mph20.9 kmh 30.19 in1022.4 mb 0.00 in0.0 mm 0.00 in0.0 mm 0.00 in0.0 mm
09:53 AM 51.4°F10.8°C 30.7°F-0.7°C 45% 4.9 mph S7.9 kmh S 13.0 mph20.9 kmh 30.19 in1022.4 mb 0.00 in0.0 mm 0.00 in0.0 mm 0.00 in0.0 mm
09:48 AM 51.3°F10.7°C 31.1°F-0.5°C 46% 4.0 mph SSE6.4 kmh SSE 13.0 mph20.9 kmh 30.19 in1022.4 mb 0.00 in0.0 mm 0.00 in0.0 mm 0.00 in0.0 mm
09:43 AM 51.3°F10.7°C 31.6°F-0.2°C 47% 2.9 mph ESE4.7 kmh ESE 13.0 mph20.9 kmh 30.19 in1022.4 mb 0.00 in0.0 mm 0.00 in0.0 mm 0.00 in0.0 mm
09:38 AM 50.9°F10.5°C 31.8°F-0.1°C 48% 4.0 mph NNW6.4 kmh NNW 12.1 mph19.5 kmh 30.19 in1022.4 mb 0.00 in0.0 mm 0.00 in0.0 mm 0.00 in0.0 mm
09:33 AM 50.4°F10.2°C 32.0°F0.0°C 49% 4.0 mph NW6.4 kmh NW 12.1 mph19.5 kmh 30.19 in1022.4 mb 0.00 in0.0 mm 0.00 in0.0 mm 0.00 in0.0 mm
09:28 AM 49.8°F9.9°C 31.5°F-0.3°C 49% 4.0 mph WSW6.4 kmh WSW 11.0 mph17.7 kmh 30.19 in1022.4 mb 0.00 in0.0 mm 0.00 in0.0 mm 0.00 in0.0 mm
09:23 AM 49.3°F9.6°C 32.0°F0.0°C 51% 4.0 mph SW6.4 kmh SW 14.1 mph22.7 kmh 30.19 in1022.4 mb 0.00 in0.0 mm 0.00 in0.0 mm 0.00 in0.0 mm
09:18 AM 48.9°F9.4°C 31.6°F-0.2°C 51% 4.9 mph SW7.9 kmh SW 15.0 mph24.1 kmh 30.19 in1022.4 mb 0.00 in0.0 mm 0.00 in0.0 mm 0.00 in0.0 mm
09:13 AM 48.4°F9.1°C 31.6°F-0.2°C 52% 6.0 mph SE9.7 kmh SE 16.1 mph25.9 kmh 30.19 in1022.4 mb 0.00 in0.0 mm 0.00 in0.0 mm 0.00 in0.0 mm
09:08 AM 48.2°F9.0°C 31.5°F-0.3°C 52% 6.0 mph SSW9.7 kmh SSW 15.0 mph24.1 kmh 30.19 in1022.4 mb 0.00 in0.0 mm 0.00 in0.0 mm 0.00 in0.0 mm
09:03 AM 48.0°F8.9°C 31.6°F-0.2°C 53% 6.0 mph WSW9.7 kmh WSW 16.1 mph25.9 kmh 30.19 in1022.4 mb 0.00 in0.0 mm 0.00 in0.0 mm 0.00 in0.0 mm
08:58 AM 47.8°F8.8°C 31.5°F-0.3°C 53% 6.9 mph SE11.1 kmh SE 16.1 mph25.9 kmh 30.19 in1022.4 mb 0.00 in0.0 mm 0.00 in0.0 mm 0.00 in0.0 mm
08:53 AM 47.7°F8.7°C 31.3°F-0.4°C 53% 6.9 mph SW11.1 kmh SW 15.0 mph24.1 kmh 30.19 in1022.4 mb 0.00 in0.0 mm 0.00 in0.0 mm 0.00 in0.0 mm
08:43 AM 47.1°F8.4°C 31.3°F-0.4°C 54% 6.0 mph SW9.7 kmh SW 17.0 mph27.4 kmh 30.19 in1022.4 mb 0.00 in0.0 mm 0.00 in0.0 mm 0.00 in0.0 mm
08:38 AM 46.9°F8.3°C 31.6°F-0.2°C 55% 6.0 mph SW9.7 kmh SW 19.0 mph30.6 kmh 30.19 in1022.4 mb 0.00 in0.0 mm 0.00 in0.0 mm 0.00 in0.0 mm
08:33 AM 46.8°F8.2°C 31.5°F-0.3°C 55% 6.0 mph S9.7 kmh S 13.0 mph20.9 kmh 30.18 in1022.0 mb 0.00 in0.0 mm 0.00 in0.0 mm 0.00 in0.0 mm
08:28 AM 46.4°F8.0°C 31.6°F-0.2°C 56% 6.9 mph SSE11.1 kmh SSE 15.0 mph24.1 kmh 30.19 in1022.4 mb 0.00 in0.0 mm 0.00 in0.0 mm 0.00 in0.0 mm
08:23 AM 46.2°F7.9°C 31.5°F-0.3°C 56% 6.9 mph W11.1 kmh W 14.1 mph22.7 kmh 30.19 in1022.4 mb 0.00 in0.0 mm 0.00 in0.0 mm 0.00 in0.0 mm
08:18 AM 46.2°F7.9°C 31.5°F-0.3°C 56% 6.0 mph SW9.7 kmh SW 14.1 mph22.7 kmh 30.19 in1022.4 mb 0.00 in0.0 mm 0.00 in0.0 mm 0.00 in0.0 mm
08:13 AM 46.0°F7.8°C 31.3°F-0.4°C 56% 6.0 mph SW9.7 kmh SW 14.1 mph22.7 kmh 30.18 in1022.0 mb 0.00 in0.0 mm 0.00 in0.0 mm 0.00 in0.0 mm
08:08 AM 46.0°F7.8°C 31.3°F-0.4°C 56% 6.9 mph WSW11.1 kmh WSW 15.0 mph24.1 kmh 30.18 in1022.0 mb 0.00 in0.0 mm 0.00 in0.0 mm 0.00 in0.0 mm
08:03 AM 45.9°F7.7°C 31.1°F-0.5°C 56% 6.0 mph SW9.7 kmh SW 17.0 mph27.4 kmh 30.18 in1022.0 mb 0.00 in0.0 mm 0.00 in0.0 mm 0.00 in0.0 mm
07:58 AM 45.9°F7.7°C 31.5°F-0.3°C 57% 4.9 mph NW7.9 kmh NW 13.0 mph20.9 kmh 30.18 in1022.0 mb 0.00 in0.0 mm 0.00 in0.0 mm 0.00 in0.0 mm
07:53 AM 45.5°F7.5°C 31.1°F-0.5°C 57% 6.0 mph S9.7 kmh S 17.9 mph28.8 kmh 30.18 in1022.0 mb 0.00 in0.0 mm 0.00 in0.0 mm 0.00 in0.0 mm
07:48 AM 45.1°F7.3°C 31.3°F-0.4°C 58% 4.9 mph SW7.9 kmh SW 20.0 mph32.2 kmh 30.18 in1022.0 mb 0.00 in0.0 mm 0.00 in0.0 mm 0.00 in0.0 mm
07:43 AM 45.0°F7.2°C 31.1°F-0.5°C 58% 4.0 mph S6.4 kmh S 19.0 mph30.6 kmh 30.17 in1021.7 mb 0.00 in0.0 mm 0.00 in0.0 mm 0.00 in0.0 mm
07:38 AM 44.6°F7.0°C 31.1°F-0.5°C 59% 4.9 mph S7.9 kmh S 14.1 mph22.7 kmh 30.18 in1022.0 mb 0.00 in0.0 mm 0.00 in0.0 mm 0.00 in0.0 mm
07:33 AM 44.2°F6.8°C 30.7°F-0.7°C 59% 4.0 mph SW6.4 kmh SW 16.0 mph25.7 kmh 30.18 in1022.0 mb 0.00 in0.0 mm 0.00 in0.0 mm 0.00 in0.0 mm
07:28 AM 43.7°F6.5°C 30.7°F-0.7°C 60% 4.0 mph SW6.4 kmh SW 10.1 mph16.3 kmh 30.18 in1022.0 mb 0.00 in0.0 mm 0.00 in0.0 mm 0.00 in0.0 mm
07:23 AM 43.7°F6.5°C 30.7°F-0.7°C 60% 2.9 mph SW4.7 kmh SW 12.1 mph19.5 kmh 30.19 in1022.4 mb 0.00 in0.0 mm 0.00 in0.0 mm 0.00 in0.0 mm
07:18 AM 43.3°F6.3°C 30.4°F-0.9°C 60% 2.0 mph SW3.2 kmh SW 11.0 mph17.7 kmh 30.18 in1022.0 mb 0.00 in0.0 mm 0.00 in0.0 mm 0.00 in0.0 mm
07:13 AM 43.2°F6.2°C 30.2°F-1.0°C 60% 2.0 mph SSW3.2 kmh SSW 8.9 mph14.3 kmh 30.19 in1022.4 mb 0.00 in0.0 mm 0.00 in0.0 mm 0.00 in0.0 mm
07:08 AM 43.2°F6.2°C 30.2°F-1.0°C 60% 2.9 mph SE4.7 kmh SE 10.1 mph16.3 kmh 30.19 in1022.4 mb 0.00 in0.0 mm 0.00 in0.0 mm 0.00 in0.0 mm
07:03 AM 42.4°F5.8°C 30.0°F-1.1°C 61% 2.0 mph WSW3.2 kmh WSW 14.1 mph22.7 kmh 30.19 in1022.4 mb 0.00 in0.0 mm 0.00 in0.0 mm 0.00 in0.0 mm
06:58 AM 41.5°F5.3°C 29.5°F-1.4°C 62% 0.9 mph NW1.4 kmh NW 4.9 mph7.9 kmh 30.19 in1022.4 mb 0.00 in0.0 mm 0.00 in0.0 mm 0.00 in0.0 mm
06:53 AM 41.0°F5.0°C 29.3°F-1.5°C 63% 0.9 mph S1.4 kmh S 8.1 mph13.0 kmh 30.19 in1022.4 mb 0.00 in0.0 mm 0.00 in0.0 mm 0.00 in0.0 mm
06:48 AM 40.6°F4.8°C 29.1°F-1.6°C 63% Calm Calm 0.9 mph1.4 kmh 30.19 in1022.4 mb 0.00 in0.0 mm 0.00 in0.0 mm 0.00 in0.0 mm
06:43 AM 40.8°F4.9°C 29.1°F-1.6°C 63% Calm Calm 2.0 mph3.2 kmh 30.19 in1022.4 mb 0.00 in0.0 mm 0.00 in0.0 mm 0.00 in0.0 mm
06:38 AM 40.8°F4.9°C 29.1°F-1.6°C 63% Calm Calm 2.0 mph3.2 kmh 30.19 in1022.4 mb 0.00 in0.0 mm 0.00 in0.0 mm 0.00 in0.0 mm
06:33 AM 41.2°F5.1°C 29.1°F-1.6°C 62% Calm Calm 2.0 mph3.2 kmh 30.19 in1022.4 mb 0.00 in0.0 mm 0.00 in0.0 mm 0.00 in0.0 mm
06:28 AM 41.4°F5.2°C 29.3°F-1.5°C 62% Calm Calm 0.9 mph1.4 kmh 30.19 in1022.4 mb 0.00 in0.0 mm 0.00 in0.0 mm 0.00 in0.0 mm
06:23 AM 41.4°F5.2°C 28.9°F-1.7°C 61% Calm Calm 0.9 mph1.4 kmh 30.19 in1022.4 mb 0.00 in0.0 mm 0.00 in0.0 mm 0.00 in0.0 mm
06:18 AM 41.5°F5.3°C 29.1°F-1.6°C 61% Calm Calm 4.0 mph6.4 kmh 30.19 in1022.4 mb 0.00 in0.0 mm 0.00 in0.0 mm 0.00 in0.0 mm
06:13 AM 41.5°F5.3°C 29.1°F-1.6°C 61% Calm Calm 2.0 mph3.2 kmh 30.19 in1022.4 mb 0.00 in0.0 mm 0.00 in0.0 mm 0.00 in0.0 mm
06:08 AM 41.7°F5.4°C 29.3°F-1.5°C 61% Calm Calm 2.9 mph4.7 kmh 30.19 in1022.4 mb 0.00 in0.0 mm 0.00 in0.0 mm 0.00 in0.0 mm
06:03 AM 41.5°F5.3°C 29.1°F-1.6°C 61% Calm Calm 2.0 mph3.2 kmh 30.19 in1022.4 mb 0.00 in0.0 mm 0.00 in0.0 mm 0.00 in0.0 mm
05:58 AM 41.5°F5.3°C 29.1°F-1.6°C 61% Calm Calm 2.9 mph4.7 kmh 30.19 in1022.4 mb 0.00 in0.0 mm 0.00 in0.0 mm 0.00 in0.0 mm
05:53 AM 41.9°F5.5°C 28.9°F-1.7°C 60% Calm Calm 2.9 mph4.7 kmh 30.19 in1022.4 mb 0.00 in0.0 mm 0.00 in0.0 mm 0.00 in0.0 mm
05:48 AM 41.7°F5.4°C 29.3°F-1.5°C 61% Calm Calm 2.9 mph4.7 kmh 30.19 in1022.4 mb 0.00 in0.0 mm 0.00 in0.0 mm 0.00 in0.0 mm
05:43 AM 41.7°F5.4°C 28.9°F-1.7°C 60% 0.9 mph W1.4 kmh W 2.9 mph4.7 kmh 30.19 in1022.4 mb 0.00 in0.0 mm 0.00 in0.0 mm 0.00 in0.0 mm
05:38 AM 41.5°F5.3°C 29.1°F-1.6°C 61% 0.9 mph NW1.4 kmh NW 2.0 mph3.2 kmh 30.19 in1022.4 mb 0.00 in0.0 mm 0.00 in0.0 mm 0.00 in0.0 mm
05:33 AM 41.7°F5.4°C 28.9°F-1.7°C 60% Calm Calm 2.0 mph3.2 kmh 30.19 in1022.4 mb 0.00 in0.0 mm 0.00 in0.0 mm 0.00 in0.0 mm
05:28 AM 41.7°F5.4°C 28.9°F-1.7°C 60% Calm Calm 2.0 mph3.2 kmh 30.19 in1022.4 mb 0.00 in0.0 mm 0.00 in0.0 mm 0.00 in0.0 mm
05:23 AM 42.3°F5.7°C 28.9°F-1.7°C 59% Calm Calm 0.9 mph1.4 kmh 30.19 in1022.4 mb 0.00 in0.0 mm 0.00 in0.0 mm 0.00 in0.0 mm
05:18 AM 42.6°F5.9°C 29.3°F-1.5°C 59% Calm Calm 4.9 mph7.9 kmh 30.19 in1022.4 mb 0.00 in0.0 mm 0.00 in0.0 mm 0.00 in0.0 mm
05:13 AM 42.4°F5.8°C 29.1°F-1.6°C 59% Calm Calm 4.9 mph7.9 kmh 30.19 in1022.4 mb 0.00 in0.0 mm 0.00 in0.0 mm 0.00 in0.0 mm
05:08 AM 42.4°F5.8°C 29.1°F-1.6°C 59% Calm Calm 0.9 mph1.4 kmh 30.19 in1022.4 mb 0.00 in0.0 mm 0.00 in0.0 mm 0.00 in0.0 mm
05:03 AM 42.8°F6.0°C 29.5°F-1.4°C 59% Calm Calm 0.9 mph1.4 kmh 30.19 in1022.4 mb 0.00 in0.0 mm 0.00 in0.0 mm 0.00 in0.0 mm
04:58 AM 42.8°F6.0°C 29.8°F-1.2°C 60% 0.9 mph WNW1.4 kmh WNW 2.9 mph4.7 kmh 30.19 in1022.4 mb 0.00 in0.0 mm 0.00 in0.0 mm 0.00 in0.0 mm
04:53 AM 42.6°F5.9°C 29.7°F-1.3°C 60% 0.9 mph SW1.4 kmh SW 4.0 mph6.4 kmh 30.19 in1022.4 mb 0.00 in0.0 mm 0.00 in0.0 mm 0.00 in0.0 mm
04:48 AM 41.9°F5.5°C 29.8°F-1.2°C 62% Calm Calm 5.0 mph8.0 kmh 30.19 in1022.4 mb 0.00 in0.0 mm 0.00 in0.0 mm 0.00 in0.0 mm
04:43 AM 41.2°F5.1°C 29.5°F-1.4°C 63% Calm Calm 2.0 mph3.2 kmh 30.19 in1022.4 mb 0.00 in0.0 mm 0.00 in0.0 mm 0.00 in0.0 mm
04:38 AM 40.3°F4.6°C 29.5°F-1.4°C 65% Calm Calm 4.9 mph7.9 kmh 30.19 in1022.4 mb 0.00 in0.0 mm 0.00 in0.0 mm 0.00 in0.0 mm
04:33 AM 39.2°F4.0°C 29.1°F-1.6°C 67% Calm Calm 2.0 mph3.2 kmh 30.19 in1022.4 mb 0.00 in0.0 mm 0.00 in0.0 mm 0.00 in0.0 mm
04:28 AM 38.7°F3.7°C 28.9°F-1.7°C 68% Calm Calm 0.9 mph1.4 kmh 30.19 in1022.4 mb 0.00 in0.0 mm 0.00 in0.0 mm 0.00 in0.0 mm
04:23 AM 38.3°F3.5°C 28.8°F-1.8°C 68% Calm Calm 0.9 mph1.4 kmh 30.19 in1022.4 mb 0.00 in0.0 mm 0.00 in0.0 mm 0.00 in0.0 mm
04:18 AM 38.1°F3.4°C 28.6°F-1.9°C 68% Calm Calm 2.0 mph3.2 kmh 30.18 in1022.0 mb 0.00 in0.0 mm 0.00 in0.0 mm 0.00 in0.0 mm
04:13 AM 38.5°F3.6°C 28.4°F-2.0°C 67% Calm Calm -- 30.19 in1022.4 mb 0.00 in0.0 mm 0.00 in0.0 mm 0.00 in0.0 mm
04:08 AM 38.8°F3.8°C 28.8°F-1.8°C 67% Calm Calm 0.9 mph1.4 kmh 30.19 in1022.4 mb 0.00 in0.0 mm 0.00 in0.0 mm 0.00 in0.0 mm
04:03 AM 39.7°F4.3°C 28.6°F-1.9°C 64% Calm Calm 0.9 mph1.4 kmh 30.19 in1022.4 mb 0.00 in0.0 mm 0.00 in0.0 mm 0.00 in0.0 mm
03:58 AM 40.5°F4.7°C 28.9°F-1.7°C 63% 0.9 mph WSW1.4 kmh WSW 4.0 mph6.4 kmh 30.19 in1022.4 mb 0.00 in0.0 mm 0.00 in0.0 mm 0.00 in0.0 mm
03:53 AM 40.6°F4.8°C 29.1°F-1.6°C 63% 0.9 mph SE1.4 kmh SE 4.9 mph7.9 kmh 30.19 in1022.4 mb 0.00 in0.0 mm 0.00 in0.0 mm 0.00 in0.0 mm
03:48 AM 40.8°F4.9°C 28.8°F-1.8°C 62% 0.9 mph SSE1.4 kmh SSE 4.0 mph6.4 kmh 30.19 in1022.4 mb 0.00 in0.0 mm 0.00 in0.0 mm 0.00 in0.0 mm
03:43 AM 41.2°F5.1°C 29.1°F-1.6°C 62% Calm Calm 2.0 mph3.2 kmh 30.19 in1022.4 mb 0.00 in0.0 mm 0.00 in0.0 mm 0.00 in0.0 mm
03:38 AM 41.5°F5.3°C 29.1°F-1.6°C 61% 0.9 mph SW1.4 kmh SW 2.9 mph4.7 kmh 30.19 in1022.4 mb 0.00 in0.0 mm 0.00 in0.0 mm 0.00 in0.0 mm
03:33 AM 42.1°F5.6°C 29.1°F-1.6°C 60% 2.0 mph S3.2 kmh S 6.0 mph9.7 kmh 30.19 in1022.4 mb 0.00 in0.0 mm 0.00 in0.0 mm 0.00 in0.0 mm
03:28 AM 42.1°F5.6°C 29.1°F-1.6°C 60% 2.0 mph S3.2 kmh S 4.9 mph7.9 kmh 30.20 in1022.7 mb 0.00 in0.0 mm 0.00 in0.0 mm 0.00 in0.0 mm
03:23 AM 42.1°F5.6°C 29.1°F-1.6°C 60% 0.9 mph S1.4 kmh S 6.9 mph11.1 kmh 30.20 in1022.7 mb 0.00 in0.0 mm 0.00 in0.0 mm 0.00 in0.0 mm
03:18 AM 42.1°F5.6°C 29.1°F-1.6°C 60% 2.0 mph SSW3.2 kmh SSW 4.0 mph6.4 kmh 30.20 in1022.7 mb 0.00 in0.0 mm 0.00 in0.0 mm 0.00 in0.0 mm
03:13 AM 42.3°F5.7°C 29.3°F-1.5°C 60% 2.0 mph SE3.2 kmh SE 4.9 mph7.9 kmh 30.20 in1022.7 mb 0.00 in0.0 mm 0.00 in0.0 mm 0.00 in0.0 mm
03:08 AM 42.3°F5.7°C 28.9°F-1.7°C 59% 0.9 mph E1.4 kmh E 7.0 mph11.3 kmh 30.20 in1022.7 mb 0.00 in0.0 mm 0.00 in0.0 mm 0.00 in0.0 mm
03:03 AM 42.1°F5.6°C 29.1°F-1.6°C 60% 2.0 mph SSW3.2 kmh SSW 6.0 mph9.7 kmh 30.20 in1022.7 mb 0.00 in0.0 mm 0.00 in0.0 mm 0.00 in0.0 mm
02:58 AM 41.4°F5.2°C 28.9°F-1.7°C 61% 0.9 mph SW1.4 kmh SW 7.0 mph11.3 kmh 30.20 in1022.7 mb 0.00 in0.0 mm 0.00 in0.0 mm 0.00 in0.0 mm
02:53 AM 41.4°F5.2°C 28.9°F-1.7°C 61% Calm Calm 4.0 mph6.4 kmh 30.20 in1022.7 mb 0.00 in0.0 mm 0.00 in0.0 mm 0.00 in0.0 mm
02:48 AM 41.9°F5.5°C 28.9°F-1.7°C 60% Calm Calm 2.0 mph3.2 kmh 30.21 in1023.0 mb 0.00 in0.0 mm 0.00 in0.0 mm 0.00 in0.0 mm
02:43 AM 42.3°F5.7°C 29.3°F-1.5°C 60% 0.9 mph SW1.4 kmh SW 2.0 mph3.2 kmh 30.21 in1023.0 mb 0.00 in0.0 mm 0.00 in0.0 mm 0.00 in0.0 mm
02:38 AM 42.1°F5.6°C 29.1°F-1.6°C 60% 0.9 mph S1.4 kmh S 6.0 mph9.7 kmh 30.21 in1023.0 mb 0.00 in0.0 mm 0.00 in0.0 mm 0.00 in0.0 mm
02:33 AM 41.5°F5.3°C 29.1°F-1.6°C 61% 0.9 mph N1.4 kmh N 4.0 mph6.4 kmh 30.21 in1023.0 mb 0.00 in0.0 mm 0.00 in0.0 mm 0.00 in0.0 mm
02:28 AM 41.2°F5.1°C 29.1°F-1.6°C 62% 0.9 mph W1.4 kmh W 5.0 mph8.0 kmh 30.21 in1023.0 mb 0.00 in0.0 mm 0.00 in0.0 mm 0.00 in0.0 mm
02:23 AM 40.6°F4.8°C 28.6°F-1.9°C 62% 0.9 mph NW1.4 kmh NW 4.0 mph6.4 kmh 30.21 in1023.0 mb 0.00 in0.0 mm 0.00 in0.0 mm 0.00 in0.0 mm
02:18 AM 40.5°F4.7°C 28.9°F-1.7°C 63% 0.9 mph SW1.4 kmh SW 4.0 mph6.4 kmh 30.21 in1023.0 mb 0.00 in0.0 mm 0.00 in0.0 mm 0.00 in0.0 mm
02:13 AM 40.3°F4.6°C 28.8°F-1.8°C 63% 0.9 mph SW1.4 kmh SW 2.0 mph3.2 kmh 30.21 in1023.0 mb 0.00 in0.0 mm 0.00 in0.0 mm 0.00 in0.0 mm
02:08 AM 40.5°F4.7°C 28.9°F-1.7°C 63% 0.9 mph SW1.4 kmh SW 4.0 mph6.4 kmh 30.21 in1023.0 mb 0.00 in0.0 mm 0.00 in0.0 mm 0.00 in0.0 mm
02:03 AM 40.5°F4.7°C 28.9°F-1.7°C 63% 0.9 mph SW1.4 kmh SW 4.0 mph6.4 kmh 30.22 in1023.4 mb 0.00 in0.0 mm 0.00 in0.0 mm 0.00 in0.0 mm
01:58 AM 40.6°F4.8°C 29.1°F-1.6°C 63% 0.9 mph SW1.4 kmh SW 4.0 mph6.4 kmh 30.22 in1023.4 mb 0.00 in0.0 mm 0.00 in0.0 mm 0.00 in0.0 mm
01:53 AM 40.6°F4.8°C 29.1°F-1.6°C 63% Calm Calm 4.0 mph6.4 kmh 30.22 in1023.4 mb 0.00 in0.0 mm 0.00 in0.0 mm 0.00 in0.0 mm
01:48 AM 40.8°F4.9°C 28.8°F-1.8°C 62% 0.9 mph SSE1.4 kmh SSE 4.9 mph7.9 kmh 30.22 in1023.4 mb 0.00 in0.0 mm 0.00 in0.0 mm 0.00 in0.0 mm
01:43 AM 40.8°F4.9°C 28.8°F-1.8°C 62% 0.9 mph SE1.4 kmh SE 6.9 mph11.1 kmh 30.21 in1023.0 mb 0.00 in0.0 mm 0.00 in0.0 mm 0.00 in0.0 mm
01:38 AM 40.8°F4.9°C 29.1°F-1.6°C 63% 0.9 mph WSW1.4 kmh WSW 2.9 mph4.7 kmh 30.21 in1023.0 mb 0.00 in0.0 mm 0.00 in0.0 mm 0.00 in0.0 mm
01:33 AM 40.6°F4.8°C 29.1°F-1.6°C 63% 0.9 mph SW1.4 kmh SW 6.9 mph11.1 kmh 30.22 in1023.4 mb 0.00 in0.0 mm 0.00 in0.0 mm 0.00 in0.0 mm
01:28 AM 40.6°F4.8°C 29.1°F-1.6°C 63% 0.9 mph SW1.4 kmh SW 7.0 mph11.3 kmh 30.21 in1023.0 mb 0.00 in0.0 mm 0.00 in0.0 mm 0.00 in0.0 mm
01:23 AM 40.6°F4.8°C 29.1°F-1.6°C 63% 0.9 mph SSE1.4 kmh SSE 4.0 mph6.4 kmh 30.22 in1023.4 mb 0.00 in0.0 mm 0.00 in0.0 mm 0.00 in0.0 mm
01:18 AM 40.5°F4.7°C 29.3°F-1.5°C 64% 0.9 mph SW1.4 kmh SW 4.0 mph6.4 kmh 30.22 in1023.4 mb 0.00 in0.0 mm 0.00 in0.0 mm 0.00 in0.0 mm
01:13 AM 40.3°F4.6°C 29.1°F-1.6°C 64% 0.9 mph WNW1.4 kmh WNW 2.9 mph4.7 kmh 30.22 in1023.4 mb 0.00 in0.0 mm 0.00 in0.0 mm 0.00 in0.0 mm
01:08 AM 40.1°F4.5°C 29.3°F-1.5°C 65% 0.9 mph WSW1.4 kmh WSW 8.1 mph13.0 kmh 30.22 in1023.4 mb 0.00 in0.0 mm 0.00 in0.0 mm 0.00 in0.0 mm
01:03 AM 40.3°F4.6°C 29.5°F-1.4°C 65% 0.9 mph SE1.4 kmh SE 6.0 mph9.7 kmh 30.22 in1023.4 mb 0.00 in0.0 mm 0.00 in0.0 mm 0.00 in0.0 mm
12:58 AM 40.3°F4.6°C 29.5°F-1.4°C 65% 2.0 mph SW3.2 kmh SW 4.9 mph7.9 kmh 30.22 in1023.4 mb 0.00 in0.0 mm 0.00 in0.0 mm 0.00 in0.0 mm
12:53 AM 39.9°F4.4°C 29.5°F-1.4°C 66% 0.9 mph W1.4 kmh W 9.0 mph14.5 kmh 30.22 in1023.4 mb 0.00 in0.0 mm 0.00 in0.0 mm 0.00 in0.0 mm
12:48 AM 39.4°F4.1°C 29.3°F-1.5°C 67% 0.9 mph WSW1.4 kmh WSW 7.0 mph11.3 kmh 30.23 in1023.7 mb 0.00 in0.0 mm 0.00 in0.0 mm 0.00 in0.0 mm
12:43 AM 39.6°F4.2°C 29.5°F-1.4°C 67% 0.9 mph SSW1.4 kmh SSW 6.0 mph9.7 kmh 30.23 in1023.7 mb 0.00 in0.0 mm 0.00 in0.0 mm 0.00 in0.0 mm
12:38 AM 39.4°F4.1°C 29.7°F-1.3°C 68% 2.0 mph SW3.2 kmh SW 7.0 mph11.3 kmh 30.23 in1023.7 mb 0.00 in0.0 mm 0.00 in0.0 mm 0.00 in0.0 mm
12:33 AM 38.8°F3.8°C 29.8°F-1.2°C 70% 2.0 mph W3.2 kmh W 6.0 mph9.7 kmh 30.23 in1023.7 mb 0.00 in0.0 mm 0.00 in0.0 mm 0.00 in0.0 mm
12:28 AM 37.9°F3.3°C 29.7°F-1.3°C 72% 2.0 mph SW3.2 kmh SW 7.0 mph11.3 kmh 30.23 in1023.7 mb 0.00 in0.0 mm 0.00 in0.0 mm 0.00 in0.0 mm
12:23 AM 36.5°F2.5°C 29.7°F-1.3°C 76% 0.9 mph W1.4 kmh W 6.0 mph9.7 kmh 30.23 in1023.7 mb 0.00 in0.0 mm 0.00 in0.0 mm 0.00 in0.0 mm
12:18 AM 35.2°F1.8°C 29.3°F-1.5°C 79% 0.9 mph WNW1.4 kmh WNW 4.0 mph6.4 kmh 30.24 in1024.0 mb 0.00 in0.0 mm 0.00 in0.0 mm 0.00 in0.0 mm
12:13 AM 33.6°F0.9°C 28.8°F-1.8°C 82% Calm Calm 2.0 mph3.2 kmh 30.24 in1024.0 mb 0.00 in0.0 mm 0.00 in0.0 mm 0.00 in0.0 mm
12:08 AM 33.1°F0.6°C 28.2°F-2.1°C 82% Calm Calm 2.0 mph3.2 kmh 30.24 in1024.0 mb 0.00 in0.0 mm 0.00 in0.0 mm 0.00 in0.0 mm
12:03 AM 33.3°F0.7°C 28.0°F-2.2°C 81% Calm Calm -- 30.24 in1024.0 mb 0.00 in0.0 mm 0.00 in0.0 mm 0.00 in0.0 mm